MUCF/CFG METAR and TAF weather

Enter ICAO airport designator
Station Type Date Time Source
MUCF METAR 2022/05/23 12:55 UTC NOAA

MUCF 231255Z 08007KT 040V120 9000 FEW020 BKN080 28/23 Q1018


Station Type Date Time Source
MUCF Decoded METAR 2022/05/23 12:55 UTC NOAA

Cienfuegos, Las Villas, Cuba (MUCF) 22-09N 080-24W 39M
May 23, 2022 - 08:55 AM EDT / 2022.05.23 1255 UTC
Wind: from the E (080 degrees) at 8 MPH (7 KT) (direction variable):0
Visibility: 5 mile(s):0
Sky conditions: mostly cloudy
Temperature: 82 F (28 C)
Dew Point: 73 F (23 C)
Relative Humidity: 74%
Pressure (altimeter): 30.06 in. Hg (1018 hPa)
ob: MUCF 231255Z 08007KT 040V120 9000 FEW020 BKN080 28/23 Q1018
cycle: 13

Station Type Date Time Source
MUCF TAF 2022/05/23 12:03 UTC NOAA

TAF MUCF 231100Z 2312/2324 VRB03KT 9000 SCT020
BECMG 2315/2317 22010KT
TEMPO 2318/2324 VRB10KT 5000 TSRA SCT018CB BKN020

Example: see airport list